Stations météo

réclame
Mon MeteoGroup
Besancon, France (7288): Température de l'air & dewpoint: 20.05.2018 17:00:00 - 26.05.2018 17:00:00 (CEST)Besancon, France (7288): Température de l'air 5cm: 20.05.2018 17:00:00 - 26.05.2018 17:00:00 (CEST)Besancon, France (7288): Température de l'air -20cm & Température de l'air -100cm: 20.05.2018 17:00:00 - 26.05.2018 17:00:00 (CEST)Besancon, France (7288): Vitesse du vent & gusts: 20.05.2018 17:00:00 - 26.05.2018 17:00:00 (CEST)Besancon, France (7288): Direction du vent: 20.05.2018 17:00:00 - 26.05.2018 17:00:00 (CEST)Besancon, France (7288): reduced air pressure: 20.05.2018 17:00:00 - 26.05.2018 17:00:00 (CEST)Besancon, France (7288): Ensoleillement: 20.05.2018 17:00:00 - 26.05.2018 17:00:00 (CEST)Besancon, France (7288): Quantités de précipitations: 20.05.2018 17:00:00 - 26.05.2018 17:00:00 (CEST)
Date & Time tt [°C] td [°C] tt 5cm [°C] tt -20cm [°C] tt -100cm [°C] ff [km/h] ff [knt] fx [km/h] fx [knt] dd ppp [hPa] sd [min] rr [mm]
26.05.2018 17:00:00 27,1 15,5 29,7 20,0 14,6 3 2 15 8 ENE 1016,1 8 0,0
26.05.2018 16:00:00 27,3 14,0 31,5 19,8 14,6 3 2 11 6 NNE 1016,6 35 0,0
26.05.2018 15:00:00 25,3 15,3 26,7 19,7 14,6 0 0 7 4 N 1017,6 0 0,0
26.05.2018 14:00:00 24,9 14,7 28,8 19,5 14,5 3 1 16 9 NW 1018,3 0 0,0
26.05.2018 13:00:00 25,6 12,8 29,3 19,4 14,5 11 6 22 12 WSW 1018,7 45 0,0
26.05.2018 12:00:00 24,3 14,7 27,8 19,3 14,5 10 5 21 12 SW 1018,8 44 0,0
26.05.2018 11:00:00 22,9 13,7 25,6 19,4 14,5 9 5 26 14 SW 1018,6 28 0,0
26.05.2018 10:00:00 21,5 14,4 23,9 19,4 14,5 0 0 5 3 N 1017,9 11 0,0
26.05.2018 09:00:00 20,4 14,3 17,6 19,6 14,5 0 0 5 3 N 1017,1 39 0,0
26.05.2018 08:00:00 16,8 12,7 13,8 19,7 14,5 0 0 5 3 N 1017,1 58 0,0
26.05.2018 07:00:00 15,5 12,3 11,8 19,9 14,5 0 0 3 2 N 1016,8 8 0,0
26.05.2018 06:00:00 15,6 11,8 11,4 20,0 14,4 0 0 4 2 N 1016,4 0 0,0
26.05.2018 05:00:00 16,2 11,8 11,4 20,1 14,5 0 0 5 3 N 1016,2 0 0,0
26.05.2018 04:00:00 16,4 11,8 11,9 20,2 14,4 0 0 3 2 N 1016,3 0 0,0
26.05.2018 03:00:00 17,3 11,3 12,8 20,3 14,4 0 0 4 2 N 1016,0 0 0,0
26.05.2018 02:00:00 17,9 11,7 14,4 20,4 14,4 0 0 4 2 N 1015,9 0 0,0
26.05.2018 01:00:00 17,8 11,1 13,2 20,5 14,4 2 1 5 3 NNE 1015,9 0 0,0
26.05.2018 00:00:00 18,6 11,4 13,9 20,5 14,4 3 1 5 3 NNE 1015,7 0 0,0
25.05.2018 23:00:00 18,0 12,4 14,3 20,5 14,4 4 2 8 5 NNE 1015,1 0 0,0
25.05.2018 22:00:00 19,5 13,0 15,5 20,5 14,4 2 1 6 3 NNE 1015,4 0 0,0
25.05.2018 21:00:00 21,4 13,1 17,4 20,4 14,4 2 1 7 4 NNE 1014,9 0 0,0
25.05.2018 20:00:00 23,6 12,3 21,5 20,2 14,4 0 0 14 8 N 1014,6 23 0,0
25.05.2018 19:00:00 24,9 13,8 25,8 20,0 14,4 4 2 15 8 NE 1014,4 15 0,0
25.05.2018 18:00:00 25,5 12,0 26,0 19,7 14,3 6 3 16 9 NNE 1014,4 40 0,0
25.05.2018 17:00:00 27,2 12,4 35,7 19,4 14,3 5 3 19 11 NNE 1014,5 60 0,0
25.05.2018 16:00:00 26,2 11,9 36,2 19,1 14,3 9 5 24 13 N 1015,1 60 0,0
25.05.2018 15:00:00 26,1 12,9 31,4 18,8 14,3 5 3 20 11 NNE 1015,3 56 0,0
25.05.2018 14:00:00 25,6 11,0 38,1 18,5 14,3 6 3 18 10 N 1015,6 60 0,0
25.05.2018 13:00:00 25,3 10,3 36,1 18,4 14,3 4 2 13 7 ESE 1015,7 60 0,0
25.05.2018 12:00:00 24,0 12,6 34,0 18,2 14,3 6 3 15 8 NNE 1016,0 60 0,0
25.05.2018 11:00:00 22,7 13,2 30,8 18,2 14,3 4 2 11 6 NNE 1016,4 60 0,0
25.05.2018 10:00:00 21,5 12,3 26,0 18,3 14,3 2 1 6 3 ESE 1016,8 60 0,0
25.05.2018 09:00:00 19,2 12,7 14,8 18,4 14,3 0 0 6 3 N 1017,1 60 0,0
25.05.2018 08:00:00 14,5 12,7 12,2 18,6 14,3 0 0 5 3 N 1017,4 60 0,0
25.05.2018 07:00:00 12,6 12,0 9,1 18,7 14,2 0 0 5 3 N 1017,5 36 0,0
25.05.2018 06:00:00 12,1 11,6 8,6 18,9 14,3 0 0 6 3 N 1017,3 0 0,0
25.05.2018 05:00:00 12,5 12,0 8,8 19,1 14,2 0 0 7 4 N 1017,4 0 0,0
25.05.2018 04:00:00 12,6 11,8 8,8 19,2 14,2 4 2 6 3 NNE 1017,4 0 0,0
25.05.2018 03:00:00 13,1 11,8 9,1 19,4 14,2 2 1 4 2 NNE 1017,6 0 0,0
25.05.2018 02:00:00 13,4 12,5 9,1 19,5 14,2 0 0 6 3 N 1017,7 0 0,0
25.05.2018 01:00:00 13,8 12,4 9,7 19,6 14,2 4 2 6 3 NNE 1018,0 0 0,0
25.05.2018 00:00:00 14,4 12,8 10,2 19,6 14,2 0 0 4 2 N 1018,1 0 0,0
24.05.2018 23:00:00 15,6 13,3 11,0 19,6 14,2 0 0 5 3 N 1017,7 0 0,0
24.05.2018 22:00:00 17,8 13,1 12,1 19,6 14,2 2 1 3 2 NNE 1017,0 0 0,0
24.05.2018 21:00:00 21,3 11,6 15,6 19,4 14,2 0 0 9 5 N 1015,9 29 0,0
24.05.2018 20:00:00 23,7 11,7 24,8 19,2 14,2 5 3 13 7 W 1015,2 49 0,0
24.05.2018 19:00:00 24,2 11,8 28,4 19,0 14,2 6 3 16 9 W 1014,9 60 0,0
24.05.2018 18:00:00 24,3 11,9 26,2 18,7 14,2 6 4 18 10 W 1015,1 53 0,0
24.05.2018 17:00:00 24,3 12,9 27,5 18,4 14,2 6 4 17 9 W 1015,3 51 0,0
24.05.2018 16:00:00 23,9 12,8 27,7 18,1 14,1 6 4 16 9 W 1015,6 39 0,0
24.05.2018 15:00:00 22,9 11,9 28,4 17,8 14,2 5 3 16 9 W 1016,3 48 0,0
24.05.2018 14:00:00 22,3 13,6 26,2 17,6 14,1 8 4 16 9 WSW 1016,7 42 0,0
24.05.2018 13:00:00 22,0 13,4 24,6 17,4 14,1 5 3 14 7 WSW 1017,2 45 0,0
24.05.2018 12:00:00 20,4 12,4 24,7 17,3 14,1 4 2 13 7 WSW 1017,9 42 0,0
24.05.2018 11:00:00 19,9 12,9 26,1 17,3 14,1 4 2 11 6 SW 1018,2 48 0,0
24.05.2018 10:00:00 18,4 13,3 22,1 17,3 14,1 4 2 11 6 SW 1018,4 60 0,0
24.05.2018 09:00:00 16,3 13,4 13,2 17,4 14,1 3 2 6 4 SE 1018,6 60 0,0
24.05.2018 08:00:00 13,4 13,1 12,5 17,4 14,1 0 0 4 2 N 1018,7 60 0,0
24.05.2018 07:00:00 13,4 13,2 13,4 17,6 14,1 0 0 5 3 N 1018,5 5 0,0
24.05.2018 06:00:00 13,3 13,1 13,2 17,7 14,1 0 0 5 3 N 1018,6 0 0,0
24.05.2018 05:00:00 13,7 13,5 13,5 17,8 14,1 0 0 4 2 N 1018,3 0 0,0
24.05.2018 04:00:00 13,8 13,6 12,1 17,8 14,1 0 0 4 2 N 1018,5 0 0,0
24.05.2018 03:00:00 14,2 14,0 10,1 17,9 14,1 0 0 6 3 N 1018,4 0 0,0
24.05.2018 02:00:00 14,8 14,3 11,1 17,9 14,0 0 0 3 2 N 1018,2 0 0,0
24.05.2018 01:00:00 15,6 15,3 14,9 18,0 14,1 2 1 6 3 NNE 1018,3 0 0,0
24.05.2018 00:00:00 15,9 15,6 15,0 18,0 14,0 0 0 7 4 N 1018,4 0 0,0
23.05.2018 23:00:00 16,0 15,7 15,0 18,0 14,0 0 0 5 3 N 1018,3 0 0,0
23.05.2018 22:00:00 16,0 15,4 15,3 18,0 14,1 0 0 3 1 N 1018,3 0 0,0
23.05.2018 21:00:00 16,3 15,7 15,9 17,9 14,0 2 1 8 4 SSE 1017,6 0 0,4
23.05.2018 20:00:00 16,8 15,8 16,1 17,7 14,0 4 2 10 5 SW 1017,2 0 4,7
23.05.2018 19:00:00 17,9 14,0 16,1 17,6 14,0 7 4 19 11 W 1016,8 20 0,8
23.05.2018 18:00:00 19,3 14,8 22,5 17,4 14,0 6 4 15 8 W 1016,5 27 0,0
23.05.2018 17:00:00 20,0 13,9 24,0 17,3 13,9 4 2 8 4 WSW 1016,4 23 0,0
23.05.2018 16:00:00 18,3 13,6 22,8 17,2 14,0 3 1 10 6 SSW 1017,2 0 0,0
23.05.2018 15:00:00 17,9 14,2 20,8 17,0 13,9 4 2 9 5 W 1017,6 0 0,0
23.05.2018 14:00:00 17,3 13,8 20,9 17,0 13,9 6 3 11 6 WSW 1018,0 0 0,0
23.05.2018 13:00:00 17,3 13,6 20,0 16,9 13,9 4 2 11 6 W 1018,0 0 0,0
23.05.2018 12:00:00 16,9 14,2 20,0 16,9 13,9 4 2 8 4 W 1018,0 0 0,0
23.05.2018 11:00:00 16,2 13,7 16,6 16,9 13,9 2 1 6 3 NE 1018,0 0 0,0
23.05.2018 10:00:00 15,1 14,6 15,6 17,0 13,9 2 1 4 2 ESE 1018,0 0 0,2
23.05.2018 09:00:00 14,2 13,9 13,9 17,1 13,9 0 0 4 2 N 1017,9 0 0,2
23.05.2018 08:00:00 13,4 13,4 12,8 17,2 13,9 0 0 3 2 N 1017,7 0 0,2
23.05.2018 07:00:00 12,6 12,6 10,2 17,3 13,9 0 0 3 1 N 1017,2 0 0,0
23.05.2018 06:00:00 11,5 11,3 9,0 17,5 13,9 0 0 3 2 N 1016,6 0 0,0
23.05.2018 05:00:00 11,5 11,3 8,4 17,6 13,8 2 1 4 2 NNE 1016,3 0 0,0
23.05.2018 04:00:00 11,8 11,5 8,4 17,7 13,8 3 2 4 2 N 1016,2 0 0,0
23.05.2018 03:00:00 12,6 12,4 8,5 17,8 13,8 0 0 3 1 N 1016,1 0 0,0
23.05.2018 02:00:00 12,9 12,4 9,6 17,9 13,8 0 0 10 5 N 1016,1 0 0,0
23.05.2018 01:00:00 13,7 13,1 12,5 18,0 13,8 6 3 15 8 N 1016,0 0 0,0
23.05.2018 00:00:00 14,1 13,6 13,2 18,1 13,8 0 0 4 2 N 1015,1 0 0,0
22.05.2018 23:00:00 14,1 13,6 13,2 18,1 13,8 2 1 7 4 SE 1015,5 0 0,0
22.05.2018 22:00:00 14,1 13,1 13,3 18,2 13,8 5 3 9 5 NNW 1014,7 0 0,0
22.05.2018 21:00:00 14,5 13,7 14,0 18,2 13,8 2 1 12 6 SSE 1013,9 0 3,7
22.05.2018 20:00:00 14,6 13,8 13,9 18,1 13,8 4 2 19 10 SSW 1014,0 0 3,4
22.05.2018 19:00:00 15,3 13,3 13,7 17,9 13,8 4 2 38 21 SSW 1013,1 0 12,7
22.05.2018 18:00:00 21,7 12,3 20,2 17,7 13,8 3 2 15 8 NW 1011,1 0 0,0
22.05.2018 17:00:00 22,6 12,2 24,5 17,4 13,7 8 4 24 13 NNW 1010,8 11 0,0
22.05.2018 16:00:00 23,5 12,8 27,0 17,2 13,7 7 4 21 11 W 1010,7 32 0,0
22.05.2018 15:00:00 23,3 12,6 25,5 17,0 13,7 6 3 18 10 NW 1011,0 29 0,0
22.05.2018 14:00:00 22,3 11,7 27,5 16,8 13,7 6 4 16 9 NW 1011,3 45 0,0
22.05.2018 13:00:00 22,2 13,5 32,2 16,6 13,7 4 2 15 8 SW 1011,7 60 0,0
22.05.2018 12:00:00 21,3 13,2 27,5 16,6 13,7 3 2 11 6 SSE 1012,1 51 0,0
22.05.2018 11:00:00 19,6 13,3 25,7 16,6 13,7 3 1 11 6 SSW 1012,5 47 0,0
22.05.2018 10:00:00 18,6 13,2 19,1 16,7 13,7 4 2 14 7 WSW 1012,5 60 0,0
22.05.2018 09:00:00 16,2 12,4 12,6 16,8 13,7 4 2 13 7 SW 1012,9 51 0,0
22.05.2018 08:00:00 13,1 11,8 9,2 16,9 13,7 3 1 5 3 SSW 1013,1 60 0,0
22.05.2018 07:00:00 11,1 10,8 6,8 17,0 13,7 2 1 5 3 NNE 1013,3 17 0,0
22.05.2018 06:00:00 11,1 10,6 6,6 17,1 13,7 0 0 4 2 N 1013,0 0 0,0
22.05.2018 05:00:00 11,7 10,9 7,2 17,1 13,7 0 0 4 2 N 1012,6 0 0,0
22.05.2018 04:00:00 12,6 11,7 8,6 17,2 13,7 0 0 9 5 N 1012,3 0 0,0
22.05.2018 03:00:00 13,3 12,0 10,1 17,3 13,7 2 1 10 5 SW 1012,1 0 0,0
22.05.2018 02:00:00 13,7 12,9 10,0 17,3 13,7 0 0 5 3 N 1011,6 0 0,0
22.05.2018 01:00:00 14,2 13,6 9,3 17,3 13,7 0 0 4 2 N 1011,6 0 0,0
22.05.2018 00:00:00 14,5 13,4 10,1 17,3 13,7 0 0 4 2 N 1012,0 0 0,0
21.05.2018 23:00:00 15,2 13,9 11,1 17,3 13,7 0 0 5 3 N 1012,0 0 0,0
21.05.2018 22:00:00 16,2 13,9 11,4 17,2 13,6 0 0 5 3 N 1011,8 0 0,0
21.05.2018 21:00:00 17,7 14,2 15,5 17,2 13,7 0 0 8 4 N 1011,1 7 0,0
21.05.2018 20:00:00 18,3 14,4 17,8 17,1 13,6 4 2 9 5 NNE 1011,0 0 0,0
21.05.2018 19:00:00 19,0 14,7 18,6 16,9 13,6 0 0 10 6 N 1011,0 0 -
21.05.2018 18:00:00 20,4 13,1 24,2 16,8 13,6 3 2 16 9 ESE 1011,0 38 0,0
21.05.2018 17:00:00 19,2 11,7 19,7 16,6 13,7 5 3 36 20 NNE 1011,2 0 0,0
21.05.2018 16:00:00 23,4 9,8 27,5 16,4 13,6 6 4 14 8 W 1010,9 35 0,0
21.05.2018 15:00:00 23,2 9,9 31,4 16,2 13,6 7 4 17 9 W 1011,5 50 0,0
21.05.2018 14:00:00 23,0 10,4 41,5 16,1 13,6 9 5 16 9 W 1011,8 60 0,0
21.05.2018 13:00:00 22,5 12,1 36,8 16,0 13,6 2 1 12 6 N 1012,5 60 0,0
21.05.2018 12:00:00 21,4 11,1 32,8 16,0 13,6 5 3 13 7 S 1013,0 60 0,0
21.05.2018 11:00:00 19,2 11,2 21,5 16,1 13,6 4 2 9 5 SSW 1013,4 25 0,0
21.05.2018 10:00:00 16,9 11,0 19,8 16,1 13,6 2 1 7 4 SW 1013,9 23 0,0
21.05.2018 09:00:00 15,2 11,8 10,1 16,2 13,6 0 0 5 3 N 1014,1 56 0,0
21.05.2018 08:00:00 11,5 11,2 7,3 16,3 13,6 2 1 5 3 NNE 1014,7 45 0,0
21.05.2018 07:00:00 9,8 9,5 5,5 16,4 13,6 0 0 5 3 N 1014,9 2 0,0
21.05.2018 06:00:00 9,7 9,1 5,4 16,5 13,6 0 0 4 2 N 1015,0 0 0,0
21.05.2018 05:00:00 10,1 9,8 5,4 16,6 13,6 3 1 5 3 NNE 1014,6 0 0,0
21.05.2018 04:00:00 10,4 9,9 5,4 16,7 13,6 0 0 5 3 N 1014,6 0 0,0
21.05.2018 03:00:00 10,9 10,3 5,6 16,8 13,6 0 0 4 2 N 1014,6 0 0,0
21.05.2018 02:00:00 11,7 11,1 6,2 16,8 13,6 0 0 4 2 N 1014,6 0 0,0
21.05.2018 01:00:00 12,3 11,0 7,2 16,9 13,6 0 0 5 3 N 1014,6 0 0,0
21.05.2018 00:00:00 12,4 11,1 7,7 16,9 13,6 0 0 6 3 N 1014,7 0 0,0
20.05.2018 23:00:00 12,8 10,9 8,4 16,8 13,6 0 0 9 5 N 1014,9 0 0,0
20.05.2018 22:00:00 13,7 10,7 8,9 16,8 13,6 3 2 10 5 NNE 1014,9 0 0,0
20.05.2018 21:00:00 16,0 10,7 12,4 16,7 13,5 5 3 17 9 NNE 1014,3 27 0,0
20.05.2018 20:00:00 17,9 10,5 17,8 16,5 13,5 9 5 21 11 N 1014,0 49 0,0
20.05.2018 19:00:00 19,2 11,2 22,8 16,4 13,5 13 7 23 12 N 1013,7 60 0,0
20.05.2018 18:00:00 19,7 10,9 27,1 16,2 13,5 11 6 23 12 N 1014,2 60 0,0
20.05.2018 17:00:00 19,8 10,2 30,5 16,0 13,5 15 8 31 17 N 1014,5 60 0,0

tt = Température de l'air
td = dewpoint
tt 5cm = Température de l'air 5cm
tt -20cm = Température de l'air -20cm
tt -100cm = Température de l'air -100cm
ff = Vitesse du vent
fx = gusts
dd = Direction du vent
ppp = reduced air pressure
sd = Ensoleillement
rr = Quantités de précipitations

stations d'obs. à proximité